Terminal Aerodrome Forecast
Issued by NWS

Home | Current Version | Previous Version | Graphics & Text | Print | Product List | Glossary On
Versions: 1 2 3 4 5 6 7 8 9 10 11 12 13 14 15 16 17 18 19 20
000
FTUS43 KUNR 271120
TAFGCC
TAF
KGCC 271120Z 2712/2812 17010KT P6SM SCT150
     FM271500 22015KT P6SM SCT150
     FM272200 27020G30KT P6SM SCT100
     FM280100 31025G35KT P6SM VCTS SCT060CB
     FM280600 30015KT P6SM SKC=

USA.gov is the U.S. government's official web portal to all federal, state and local government web resources and services.